Time;durP1;ratioP1;P1;durP2;ratioP2;P2;SDS_P1;SDS_P2;PMS_P1;PMS_P2;Temp;Humidity;BMP_temperature;BMP_pressure;BME280_temperature;BME280_humidity;BME280_pressure;Samples;Min_cycle;Max_cycle;Signal;HPM_P1;HPM_P2
2022/12/15 00:40:05;;;;;;;;;23.00;23.00;;;;;16.88;25.92;100031.66;5065041;28;45320;-42
2022/12/15 00:42:31;;;;;;;;;27.50;22.50;;;;;16.90;26.03;100025.44;5049397;28;47386;-40
2022/12/15 00:44:57;;;;;;;;;25.75;23.75;;;;;16.92;26.13;100026.19;5067257;28;45217;-42
2022/12/15 00:47:23;;;;;;;;;27.75;23.25;;;;;16.96;26.07;100027.75;5073368;28;44812;-40
2022/12/15 01:22:46;;;;;;;;;24.75;23.75;;;;;17.43;25.85;100060.16;5069594;28;45320;-46
2022/12/15 01:25:12;;;;;;;;;27.00;23.50;;;;;17.46;25.76;100067.03;5066837;28;46388;-43
2022/12/15 01:27:38;;;;;;;;;27.00;24.50;;;;;17.49;25.63;100066.84;5068032;28;45768;-42
2022/12/15 01:30:05;;;;;;;;;31.00;22.75;;;;;17.52;25.63;100064.06;5065771;28;45338;-43
2022/12/15 01:32:30;;;;;;;;;30.50;24.75;;;;;17.54;25.36;100066.59;5063465;28;45349;-44
2022/12/15 01:34:56;;;;;;;;;27.25;24.75;;;;;17.55;25.50;100063.91;5062024;28;46056;-41
2022/12/15 01:37:21;;;;;;;;;27.00;24.25;;;;;17.55;25.60;100050.81;5078439;28;45308;-44
2022/12/15 01:42:30;;;;;;;;;31.75;27.25;;;;;17.60;25.51;100066.28;5070526;28;45386;-43
2022/12/15 01:45:27;;;;;;;;;31.25;26.75;;;;;17.61;25.44;100063.56;5074047;28;45279;-44
2022/12/15 01:47:56;;;;;;;;;24.75;21.75;;;;;17.62;25.51;100067.03;5073429;28;45370;-44
2022/12/15 01:50:23;;;;;;;;;28.00;25.75;;;;;17.62;25.55;100075.72;5071928;28;45284;-44
2022/12/15 01:52:49;;;;;;;;;25.75;22.50;;;;;17.64;25.53;100080.88;5045239;28;45543;-42
2022/12/15 01:55:18;;;;;;;;;28.00;24.00;;;;;17.63;25.54;100071.34;5064678;28;46133;-43
2022/12/15 01:57:45;;;;;;;;;25.75;24.75;;;;;17.61;25.44;100068.78;5071382;28;45298;-41
2022/12/15 02:00:11;;;;;;;;;24.50;23.25;;;;;17.64;25.60;100073.00;5062365;28;45163;-45
2022/12/15 02:02:37;;;;;;;;;21.00;17.75;;;;;17.64;25.36;100077.41;5068512;28;45269;-42
2022/12/15 02:05:04;;;;;;;;;28.00;26.25;;;;;17.64;25.37;100080.03;5041846;28;45471;-42
2022/12/15 02:07:29;;;;;;;;;35.25;27.00;;;;;17.63;25.28;100068.72;5063178;28;45408;-41
2022/12/15 02:09:59;;;;;;;;;29.25;27.75;;;;;17.61;25.13;100058.31;5072021;28;45063;-42
2022/12/15 02:12:37;;;;;;;;;26.00;25.00;;;;;17.60;25.32;100054.00;5076562;28;45170;-43
2022/12/15 02:15:32;;;;;;;;;29.00;24.50;;;;;17.60;25.37;100061.84;5063847;28;47187;-44
2022/12/15 02:18:10;;;;;;;;;26.75;26.75;;;;;17.58;25.40;100061.09;5071632;28;45315;-43
2022/12/15 02:20:50;;;;;;;;;27.75;27.25;;;;;17.55;25.44;100058.66;5076991;28;45352;-42
2022/12/15 02:23:37;;;;;;;;;31.25;26.00;;;;;17.54;25.31;100062.22;5076330;28;45790;-42
2022/12/15 02:26:40;;;;;;;;;26.25;24.00;;;;;17.53;25.42;100072.78;5060756;28;45413;-43
2022/12/15 02:29:14;;;;;;;;;36.75;30.00;;;;;17.51;25.20;100067.63;5060963;28;45205;-43
2022/12/15 02:31:48;;;;;;;;;33.50;26.75;;;;;17.50;25.17;100081.63;5062530;28;45391;-42
2022/12/15 02:34:17;;;;;;;;;25.00;25.00;;;;;17.48;25.29;100065.16;5072579;28;45332;-42
2022/12/15 02:36:48;;;;;;;;;26.25;23.25;;;;;17.49;25.29;100060.78;5063032;28;45993;-44
2022/12/15 02:39:14;;;;;;;;;29.00;26.00;;;;;17.46;25.15;100060.00;5062131;28;45814;-45
2022/12/15 02:41:42;;;;;;;;;28.50;25.75;;;;;17.46;25.28;100067.03;5063271;28;45181;-41
2022/12/15 02:44:23;;;;;;;;;31.25;26.50;;;;;17.43;25.43;100062.78;5074173;28;45213;-41
2022/12/15 02:47:01;;;;;;;;;25.00;21.75;;;;;17.43;25.39;100069.81;5068266;28;45665;-40
2022/12/15 02:49:41;;;;;;;;;33.00;27.75;;;;;17.41;25.34;100077.75;5066380;28;45281;-42
2022/12/15 02:52:37;;;;;;;;;27.50;24.75;;;;;17.40;25.51;100083.94;5063855;28;45378;-44
2022/12/15 02:55:17;;;;;;;;;27.50;25.25;;;;;17.39;25.35;100078.75;5061468;28;45364;-41
2022/12/15 02:58:00;;;;;;;;;25.50;20.75;;;;;17.37;25.38;100077.97;5061207;28;46723;-42
2022/12/15 03:00:27;;;;;;;;;27.50;26.75;;;;;17.34;25.46;100083.41;5060410;28;45240;-42
2022/12/15 03:02:54;;;;;;;;;27.75;24.25;;;;;17.32;25.51;100073.00;5079609;28;45224;-43
2022/12/15 03:05:23;;;;;;;;;27.50;25.75;;;;;17.30;25.61;100072.25;5076079;28;45317;-44
2022/12/15 03:07:50;;;;;;;;;28.50;25.75;;;;;17.28;25.38;100072.31;5062736;28;45794;-42
2022/12/15 03:10:17;;;;;;;;;26.75;24.50;;;;;17.27;25.52;100078.47;5061738;28;45303;-42
2022/12/15 03:12:43;;;;;;;;;26.00;23.25;;;;;17.26;25.69;100070.72;5058924;28;45304;-40
2022/12/15 03:15:09;;;;;;;;;31.50;26.75;;;;;17.24;25.59;100059.47;5058352;28;45454;-41
2022/12/15 03:17:34;;;;;;;;;28.75;27.00;;;;;17.22;25.55;100056.94;5057890;28;45288;-42
2022/12/15 03:19:59;;;;;;;;;31.75;27.25;;;;;17.22;25.32;100061.31;5057760;28;45419;-40
2022/12/15 03:22:25;;;;;;;;;27.33;22.33;;;;;17.19;25.52;100072.81;5067214;28;50758;-43
2022/12/15 03:24:50;;;;;;;;;24.25;23.00;;;;;17.17;25.56;100066.81;5075695;28;45264;-43
2022/12/15 03:27:16;;;;;;;;;29.50;28.00;;;;;17.18;25.59;100065.06;5058008;28;46933;-42
2022/12/15 03:29:41;;;;;;;;;28.00;25.75;;;;;17.15;25.70;100064.28;5057884;28;45414;-42
2022/12/15 03:32:07;;;;;;;;;29.00;24.67;;;;;17.13;25.46;100062.69;5057505;28;45352;-42
2022/12/15 03:34:32;;;;;;;;;27.50;25.25;;;;;17.13;25.47;100067.91;5061880;28;45339;-40
2022/12/15 03:36:58;;;;;;;;;32.25;25.00;;;;;17.11;25.48;100060.13;5053307;28;46055;-44
2022/12/15 03:39:23;;;;;;;;;36.50;28.50;;;;;17.10;25.42;100062.84;5065971;28;45366;-47
2022/12/15 03:41:49;;;;;;;;;29.25;27.75;;;;;17.06;25.53;100062.16;5076398;28;45442;-55
2022/12/15 03:44:14;;;;;;;;;27.50;24.00;;;;;17.07;25.35;100063.00;5074816;28;44772;-42
2022/12/15 03:46:39;;;;;;;;;27.67;25.00;;;;;17.05;25.29;100054.38;5058490;28;57996;-48
2022/12/15 03:49:04;;;;;;;;;32.00;24.75;;;;;17.02;25.44;100055.38;5057732;28;45246;-40
2022/12/15 03:51:30;;;;;;;;;31.25;25.50;;;;;17.02;25.65;100062.41;5039848;28;45247;-42
2022/12/15 03:53:57;;;;;;;;;29.50;28.50;;;;;16.99;25.41;100053.78;5058194;28;45197;-43
2022/12/15 03:56:23;;;;;;;;;27.75;26.50;;;;;16.97;25.68;100063.47;5057712;28;47079;-41
2022/12/15 03:58:48;;;;;;;;;28.25;24.75;;;;;16.95;25.54;100065.34;5059739;28;45390;-43
2022/12/15 04:01:20;;;;;;;;;35.00;28.50;;;;;16.92;25.70;100068.06;5064467;28;44761;-43
2022/12/15 04:03:45;;;;;;;;;25.75;25.50;;;;;16.89;25.49;100070.88;5065377;28;45610;-42
2022/12/15 04:06:11;;;;;;;;;32.50;28.50;;;;;16.88;25.43;100078.78;5064865;28;46116;-42
2022/12/15 04:08:36;;;;;;;;;29.00;27.67;;;;;16.87;25.43;100079.72;5058741;28;45218;-42
2022/12/15 04:11:02;;;;;;;;;31.00;26.50;;;;;16.87;25.60;100077.94;5023175;28;45405;-42
2022/12/15 04:13:27;;;;;;;;;29.25;22.75;;;;;16.88;25.51;100073.53;5040112;28;45255;-43
2022/12/15 04:15:53;;;;;;;;;32.25;28.75;;;;;16.91;25.85;100074.25;5057529;28;46476;-42
2022/12/15 04:18:19;;;;;;;;;35.00;30.00;;;;;16.94;25.82;100081.97;5057445;28;45236;-41
2022/12/15 04:20:44;;;;;;;;;27.50;26.00;;;;;16.98;25.90;100088.75;5058455;28;45232;-42
2022/12/15 04:23:09;;;;;;;;;32.00;29.50;;;;;17.02;25.82;100086.81;5063820;28;45574;-42
2022/12/15 05:31:50;;;;;;;;;32.00;27.25;;;;;17.62;25.23;100067.03;5066986;28;45925;-43
2022/12/15 05:34:18;;;;;;;;;27.25;22.50;;;;;17.61;25.06;100063.56;5061525;28;45787;-40
2022/12/15 05:36:44;;;;;;;;;27.25;26.75;;;;;17.61;25.18;100053.06;5061598;28;45284;-45
2022/12/15 05:39:09;;;;;;;;;28.33;27.00;;;;;17.61;25.11;100052.25;5064990;28;45377;-42
2022/12/15 05:41:34;;;;;;;;;34.00;27.75;;;;;17.60;25.12;100064.47;5047398;28;47331;-44
2022/12/15 05:44:00;;;;;;;;;33.50;30.75;;;;;17.61;25.22;100073.19;5071632;28;45282;-41
2022/12/15 05:46:25;;;;;;;;;31.75;26.25;;;;;17.57;25.11;100063.81;5074566;28;45597;-44
2022/12/15 05:48:51;;;;;;;;;33.00;29.25;;;;;17.56;24.93;100064.75;5062276;28;45318;-44
2022/12/15 05:51:16;;;;;;;;;31.00;27.50;;;;;17.54;25.30;100070.06;5060967;28;46094;-41
2022/12/15 05:53:41;;;;;;;;;28.50;28.25;;;;;17.54;25.22;100069.22;5060694;28;45472;-43
2022/12/15 05:56:10;;;;;;;;;38.00;28.25;;;;;17.54;24.95;100072.69;5061091;28;45446;-40
2022/12/15 05:58:36;;;;;;;;;27.50;24.50;;;;;17.51;25.22;100067.63;5061714;28;45316;-44
2022/12/15 06:01:08;;;;;;;;;31.75;26.50;;;;;17.51;25.10;100072.03;5044850;28;48212;-42
2022/12/15 06:03:33;;;;;;;;;32.50;28.25;;;;;17.48;25.10;100083.50;5063709;28;45796;-40
2022/12/15 06:06:00;;;;;;;;;32.25;26.25;;;;;17.48;25.12;100088.72;5061966;28;45324;-41
2022/12/15 06:08:30;;;;;;;;;27.50;24.50;;;;;17.46;25.23;100080.97;5065405;28;45277;-40
2022/12/15 06:10:56;;;;;;;;;38.50;29.50;;;;;17.45;25.25;100079.28;5062124;28;46091;-43
2022/12/15 06:13:25;;;;;;;;;28.00;26.50;;;;;17.43;24.91;100081.13;5060732;28;45332;-43
2022/12/15 06:15:59;;;;;;;;;31.00;26.75;;;;;17.41;25.15;100071.66;5062333;28;45395;-42
2022/12/15 06:18:28;;;;;;;;;28.50;24.75;;;;;17.40;24.77;100072.59;5057945;28;45305;-41
2022/12/15 06:21:04;;;;;;;;;30.75;27.25;;;;;17.41;25.11;100076.91;5069813;28;45415;-44
2022/12/15 06:23:31;;;;;;;;;38.00;31.50;;;;;17.38;25.04;100077.91;5068830;28;45163;-41
2022/12/15 06:25:57;;;;;;;;;31.75;26.00;;;;;17.36;25.16;100081.56;5066562;28;45435;-43
2022/12/15 06:28:24;;;;;;;;;30.50;26.50;;;;;17.36;25.12;100090.25;5071854;28;45301;-42
2022/12/15 06:30:51;;;;;;;;;28.50;23.25;;;;;17.35;25.17;100087.72;5071636;28;46512;-42
2022/12/15 06:33:17;;;;;;;;;32.50;28.50;;;;;17.33;25.14;100089.56;5070871;28;45162;-44
2022/12/15 06:35:43;;;;;;;;;31.00;28.50;;;;;17.32;25.23;100086.09;5069824;28;45162;-44
2022/12/15 06:38:08;;;;;;;;;26.50;25.75;;;;;17.30;25.10;100085.34;5063666;28;45237;-44
2022/12/15 06:40:33;;;;;;;;;29.00;26.33;;;;;17.28;25.11;100085.41;5064720;28;46166;-44
2022/12/15 06:42:59;;;;;;;;;29.25;25.25;;;;;17.24;25.15;100076.06;5065769;28;45330;-42
2022/12/15 06:45:24;;;;;;;;;32.33;25.33;;;;;17.24;25.11;100086.53;5064192;28;45162;-41
2022/12/15 06:47:49;;;;;;;;;30.75;30.50;;;;;17.23;25.36;100084.84;5059030;28;45515;-40
2022/12/15 06:50:15;;;;;;;;;29.25;26.25;;;;;17.21;25.25;100083.19;5062453;28;46288;-43
2022/12/15 06:52:40;;;;;;;;;29.25;26.25;;;;;17.20;25.29;100092.00;5060692;28;45394;-40
2022/12/15 06:55:06;;;;;;;;;30.50;29.75;;;;;17.17;25.45;100095.63;5058870;28;53093;-41
2022/12/15 06:57:31;;;;;;;;;29.25;25.00;;;;;17.17;25.33;100100.03;5058639;28;45315;-43
2022/12/15 06:59:57;;;;;;;;;31.00;27.67;;;;;17.15;25.32;100107.94;5057867;28;50938;-40
2022/12/15 07:02:22;;;;;;;;;28.33;25.33;;;;;17.13;25.27;100109.81;5057933;28;45468;-40
2022/12/15 07:04:48;;;;;;;;;28.00;26.50;;;;;17.12;25.22;100115.97;5057657;28;45323;-43
2022/12/15 07:07:13;;;;;;;;;19.75;16.75;;;;;17.10;25.18;100110.81;5058260;28;45339;-42
2022/12/15 07:09:38;;;;;;;;;34.75;28.50;;;;;17.08;25.31;100099.59;5058232;28;46844;-40
2022/12/15 07:12:04;;;;;;;;;29.25;25.25;;;;;17.07;25.36;100100.50;5059920;28;45341;-43
2022/12/15 07:14:29;;;;;;;;;28.25;25.75;;;;;17.06;25.21;100108.44;5073879;28;44751;-44
2022/12/15 07:16:55;;;;;;;;;33.75;30.75;;;;;17.06;25.33;100108.44;5068836;28;45219;-40
2022/12/15 07:19:20;;;;;;;;;30.50;25.25;;;;;17.04;25.24;100105.03;5059084;28;46040;-44
2022/12/15 07:21:46;;;;;;;;;33.67;27.33;;;;;17.03;25.21;100119.06;5058043;28;50517;-40
2022/12/15 07:24:11;;;;;;;;;29.75;27.00;;;;;17.00;25.35;100113.06;5058199;28;45347;-42
2022/12/15 07:26:37;;;;;;;;;35.75;27.75;;;;;16.99;25.17;100118.38;5064208;28;45220;-44
2022/12/15 07:29:02;;;;;;;;;32.25;28.75;;;;;16.97;25.35;100128.94;5072315;28;45260;-42
2022/12/15 07:31:29;;;;;;;;;34.33;29.67;;;;;16.95;25.32;100133.38;5071773;28;44665;-43
2022/12/15 07:33:56;;;;;;;;;36.50;30.00;;;;;16.92;25.43;100141.34;5059529;28;45212;-42
2022/12/15 07:36:22;;;;;;;;;28.50;27.25;;;;;16.90;25.24;100138.00;5058510;28;45495;-44
2022/12/15 07:38:47;;;;;;;;;30.25;27.25;;;;;16.89;25.57;100146.78;5059915;28;46122;-47
2022/12/15 07:41:12;;;;;;;;;35.75;26.00;;;;;16.91;25.41;100146.69;5061745;28;45354;-48
2022/12/15 07:43:38;;;;;;;;;35.33;28.33;;;;;16.92;25.54;100157.06;5060809;28;55902;-44
2022/12/15 07:46:03;;;;;;;;;31.75;27.50;;;;;16.95;25.54;100167.41;5071665;28;45450;-42
2022/12/15 07:48:29;;;;;;;;;33.00;28.00;;;;;16.99;25.44;100149.78;5077643;28;46426;-42
2022/12/15 07:50:58;;;;;;;;;27.50;26.25;;;;;17.01;25.38;100142.69;5066265;28;45470;-43
2022/12/15 07:53:26;;;;;;;;;30.00;26.25;;;;;17.05;25.30;100159.09;5075941;28;45259;-41
2022/12/15 07:55:57;;;;;;;;;31.25;27.25;;;;;17.10;25.62;100157.94;5066081;28;45344;-43
2022/12/15 07:58:25;;;;;;;;;32.25;27.75;;;;;17.15;25.42;100160.31;5064804;28;46498;-43
2022/12/15 08:00:51;;;;;;;;;21.75;20.00;;;;;17.18;25.41;100147.06;5063255;28;45292;-40
2022/12/15 08:03:16;;;;;;;;;29.50;27.25;;;;;17.22;25.37;100159.09;5059809;28;45411;-43
2022/12/15 08:05:42;;;;;;;;;29.00;25.25;;;;;17.26;25.42;100171.06;5061251;28;45410;-41
2022/12/15 08:08:07;;;;;;;;;28.00;26.25;;;;;17.28;25.63;100163.16;5057727;28;46252;-41
2022/12/15 08:10:32;;;;;;;;;26.50;25.00;;;;;17.33;25.44;100173.38;5039423;28;50971;-42
2022/12/15 08:12:58;;;;;;;;;30.33;27.33;;;;;17.34;25.60;100180.31;5057583;28;45344;-43
2022/12/15 08:15:23;;;;;;;;;30.50;25.50;;;;;17.37;25.41;100191.47;5057441;28;45576;-41
2022/12/15 08:17:48;;;;;;;;;31.67;27.33;;;;;17.41;25.47;100198.25;5058643;28;46330;-40
2022/12/15 08:20:14;;;;;;;;;34.75;30.00;;;;;17.44;25.30;100198.09;5061781;28;45356;-43
2022/12/15 08:22:39;;;;;;;;;27.75;25.75;;;;;17.46;25.50;100203.25;5061335;28;45535;-43
2022/12/15 08:25:05;;;;;;;;;28.25;26.25;;;;;17.48;25.33;100201.38;5067325;28;45244;-40
2022/12/15 08:27:30;;;;;;;;;27.75;25.75;;;;;17.51;25.28;100196.00;5079305;28;47482;-41
2022/12/15 08:29:55;;;;;;;;;34.75;29.25;;;;;17.53;25.40;100196.75;5071485;28;45154;-44
2022/12/15 08:32:21;;;;;;;;;30.50;29.50;;;;;17.56;25.30;100207.09;5063511;28;45340;-42
